LEMD METAR and TAF | Updated Today

LEMD METAR

Adolfo Suárez Madrid–Barajas Airport

Observation time: 18 min. ago

LEMD 061800Z 14010KT 9999 FEW045 SCT065 08/01 Q1023 NOSIG

Need help? Read our tutorial on how to read METARs or read the parsed version below.

Adolfo Suárez Madrid–Barajas Airport (LEMD) METAR

  • Weather conditions on Mon, 06 Feb 2023 18:00:00 +0000 (18 min. ago):
  • Present conditions: Dry
  • Clouds: A few at 1372 meters; scattered at 1981 meters
  • Visibility: Greater than 10 km
  • Wind: 140 degrees at 10 knots
  • Temperature: 8 celsius
  • Dew point: 1 celsius
  • Pressure: 1023 millibars
  • Remarks: None


Useful to know...

LEMD TAF

Adolfo Suárez Madrid–Barajas Airport

TAF COR LEMD 061811Z 0618/0724 VRB05KT 9999 FEW030 TX12/0715Z TNM04/0706Z PROB40 TEMPO 0618/0620 14010KT
Observation time: 7 min. ago
Need help? Read our tutorial on how to read TAFs or read the parsed version below.

Parsed version of TAF for Adolfo Suárez Madrid–Barajas Airport (LEMD)

  • From 06 February at 18:00 UTC, to day 07 of the month at 24:00 UTC
  • Clouds: A few at 914 meters
  • Visibility: Greater than 10 km
  • Wind: Variable at 5
  • Expected to arise temporarily, from 06 February at 18:00 UTC, to day 06 of the month at 20:00 UTC
    Probability of 40%
  • Wind: 140 degrees at 10